Time;durP1;ratioP1;P1;durP2;ratioP2;P2;SDS_P1;SDS_P2;PMS_P1;PMS_P2;Temp;Humidity;BMP_temperature;BMP_pressure;BME280_temperature;BME280_humidity;BME280_pressure;Samples;Min_cycle;Max_cycle;Signal;HPM_P1;HPM_P2
2022/02/28 00:01:13;;;;;;;26.27;16.03;;;2.10;84.80;;;;;;6312938;22;20177;-90
2022/02/28 00:03:39;;;;;;;28.80;16.53;;;2.10;84.90;;;;;;6313087;22;20151;-90
2022/02/28 00:06:05;;;;;;;28.03;16.83;;;2.10;84.90;;;;;;6313115;22;20227;-90
2022/02/28 00:08:30;;;;;;;28.50;16.90;;;2.20;85.00;;;;;;6312620;22;20177;-90
2022/02/28 00:10:56;;;;;;;28.63;15.87;;;2.10;85.00;;;;;;6312984;22;20150;-91
2022/02/28 00:13:22;;;;;;;25.57;16.13;;;2.10;84.90;;;;;;6313510;22;20160;-91
2022/02/28 00:15:47;;;;;;;25.10;16.67;;;2.10;85.00;;;;;;6313382;22;20673;-91
2022/02/28 00:18:13;;;;;;;28.57;16.03;;;2.00;84.90;;;;;;6314144;22;20554;-90
2022/02/28 00:20:39;;;;;;;24.97;16.03;;;2.00;85.00;;;;;;6313151;22;20210;-91
2022/02/28 00:23:05;;;;;;;28.90;16.70;;;1.90;85.10;;;;;;6312897;22;20506;-91
2022/02/28 00:25:31;;;;;;;24.77;16.17;;;1.90;85.10;;;;;;6312744;22;20160;-91
2022/02/28 00:27:56;;;;;;;26.93;17.30;;;1.90;85.20;;;;;;6312532;22;20277;-91
2022/02/28 00:30:22;;;;;;;24.57;17.30;;;1.90;85.40;;;;;;6312839;22;20220;-91
2022/02/28 00:32:48;;;;;;;25.53;16.23;;;1.80;85.40;;;;;;6312781;22;20184;-91
2022/02/28 00:35:14;;;;;;;28.30;17.43;;;1.80;85.70;;;;;;6312687;22;20179;-91
2022/02/28 00:37:39;;;;;;;32.37;18.23;;;1.70;85.80;;;;;;6312930;22;20476;-91
2022/02/28 00:40:07;;;;;;;29.30;17.53;;;1.70;86.00;;;;;;6312843;22;20157;-91
2022/02/28 00:42:33;;;;;;;26.93;17.03;;;1.60;86.20;;;;;;6312612;22;20544;-90
2022/02/28 00:44:58;;;;;;;28.83;18.07;;;1.60;86.30;;;;;;6312111;22;20153;-91
2022/02/28 00:47:24;;;;;;;27.63;17.67;;;1.60;86.40;;;;;;6312432;22;20530;-91
2022/02/28 00:49:50;;;;;;;26.00;17.17;;;1.60;86.40;;;;;;6314067;22;20171;-91
2022/02/28 00:52:16;;;;;;;29.83;16.93;;;1.60;86.30;;;;;;6312270;22;20151;-90
2022/02/28 00:54:41;;;;;;;28.43;18.13;;;1.60;86.40;;;;;;6312469;22;20158;-90
2022/02/28 00:57:07;;;;;;;27.10;16.80;;;1.60;86.50;;;;;;6312021;22;20160;-90
2022/02/28 00:59:33;;;;;;;29.37;18.60;;;1.60;86.40;;;;;;6311956;22;20189;-90
2022/02/28 01:01:58;;;;;;;30.87;17.53;;;1.50;86.40;;;;;;6312467;22;20240;-90
2022/02/28 01:04:24;;;;;;;27.90;17.87;;;1.50;86.50;;;;;;6314657;22;20164;-90
2022/02/28 01:06:50;;;;;;;27.53;16.97;;;1.50;86.60;;;;;;6311942;22;20185;-91
2022/02/28 01:09:16;;;;;;;30.23;17.57;;;1.50;86.70;;;;;;6312808;22;20230;-89
2022/02/28 01:11:41;;;;;;;29.90;16.97;;;1.50;86.70;;;;;;6311858;22;20148;-90
2022/02/28 01:14:08;;;;;;;25.00;16.90;;;1.40;86.70;;;;;;6312241;22;20157;-89
2022/02/28 01:16:34;;;;;;;30.97;17.93;;;1.40;86.70;;;;;;6312162;22;20153;-90
2022/02/28 01:19:00;;;;;;;25.40;17.40;;;1.30;86.70;;;;;;6311737;22;20658;-90
2022/02/28 01:21:25;;;;;;;31.80;18.30;;;1.30;86.80;;;;;;6311663;22;20156;-89
2022/02/28 01:23:51;;;;;;;27.03;16.53;;;1.30;86.90;;;;;;6311628;22;20164;-90
2022/02/28 01:26:18;;;;;;;30.27;17.83;;;1.30;86.90;;;;;;6311550;22;20186;-90
2022/02/28 01:28:44;;;;;;;29.87;18.60;;;1.30;87.00;;;;;;6311523;22;20173;-90
2022/02/28 01:31:10;;;;;;;30.53;18.30;;;1.30;87.00;;;;;;6311627;22;20159;-89
2022/02/28 01:33:35;;;;;;;28.03;18.20;;;1.20;87.00;;;;;;6311632;22;20475;-90
2022/02/28 01:36:02;;;;;;;30.63;18.93;;;1.20;87.00;;;;;;6311696;22;20153;-90
2022/02/28 01:38:28;;;;;;;30.07;17.60;;;1.20;87.10;;;;;;6311502;22;20528;-90
2022/02/28 01:40:54;;;;;;;29.50;18.73;;;1.20;87.10;;;;;;6311528;22;20160;-90
2022/02/28 01:43:19;;;;;;;27.20;17.23;;;1.20;87.10;;;;;;6311485;22;20166;-90
2022/02/28 01:45:45;;;;;;;32.57;17.60;;;1.10;86.90;;;;;;6311435;22;20180;-89
2022/02/28 01:48:11;;;;;;;26.77;17.20;;;1.10;86.90;;;;;;6311375;22;20238;-90
2022/02/28 01:50:37;;;;;;;26.10;17.63;;;1.00;87.00;;;;;;6311416;22;20199;-89
2022/02/28 01:53:03;;;;;;;26.67;17.50;;;1.00;87.00;;;;;;6311918;22;20331;-90
2022/02/28 01:55:29;;;;;;;28.50;18.00;;;0.90;87.00;;;;;;6311348;22;20153;-89
2022/02/28 01:57:55;;;;;;;28.83;17.40;;;0.90;87.10;;;;;;6311346;22;20181;-90
2022/02/28 02:00:24;;;;;;;24.30;16.67;;;0.80;87.10;;;;;;6311251;22;20165;-89
2022/02/28 02:02:49;;;;;;;28.40;18.80;;;0.80;87.20;;;;;;6311671;22;20179;-89
2022/02/28 02:05:15;;;;;;;27.73;17.50;;;0.70;87.20;;;;;;6311473;22;20558;-89
2022/02/28 02:07:41;;;;;;;32.07;18.13;;;0.70;87.20;;;;;;6311219;22;20188;-89
2022/02/28 02:10:10;;;;;;;24.03;16.97;;;0.60;87.10;;;;;;6311407;22;20179;-90
2022/02/28 02:12:35;;;;;;;33.47;17.63;;;0.60;87.20;;;;;;6311191;22;20153;-89
2022/02/28 02:15:01;;;;;;;27.43;18.07;;;0.50;87.30;;;;;;6311166;22;20589;-90
2022/02/28 02:17:27;;;;;;;29.03;18.93;;;0.50;87.50;;;;;;6311208;22;20159;-90
2022/02/28 02:19:54;;;;;;;26.57;17.70;;;0.40;87.60;;;;;;6311325;22;20633;-89
2022/02/28 02:22:21;;;;;;;32.10;18.87;;;0.40;87.70;;;;;;6311148;22;20161;-89
2022/02/28 02:24:51;;;;;;;29.67;19.37;;;0.30;87.80;;;;;;6311312;22;20151;-89
2022/02/28 02:27:17;;;;;;;29.87;18.33;;;0.30;88.00;;;;;;6311122;22;20211;-89
2022/02/28 02:29:43;;;;;;;33.70;21.00;;;0.30;88.10;;;;;;6311174;22;20302;-90
2022/02/28 02:32:15;;;;;;;31.73;19.47;;;0.30;88.40;;;;;;6311277;22;20151;-90
2022/02/28 02:34:42;;;;;;;30.40;19.57;;;0.20;88.50;;;;;;6312187;22;20139;-90
2022/02/28 02:37:08;;;;;;;33.23;21.10;;;0.30;88.70;;;;;;6311115;22;20209;-90
2022/02/28 02:39:39;;;;;;;30.90;20.50;;;0.20;88.80;;;;;;6311207;22;20190;-89
2022/02/28 02:42:04;;;;;;;33.87;21.50;;;0.20;88.90;;;;;;6311436;22;20143;-89
2022/02/28 02:44:31;;;;;;;39.27;21.43;;;0.20;89.10;;;;;;6311199;22;20207;-90
2022/02/28 02:46:56;;;;;;;36.07;19.93;;;0.20;89.20;;;;;;6311499;22;20210;-90
2022/02/28 02:49:22;;;;;;;36.67;20.73;;;0.20;89.40;;;;;;6311066;22;20239;-90
2022/02/28 02:51:48;;;;;;;31.83;21.03;;;0.20;89.50;;;;;;6311081;22;20169;-89
2022/02/28 02:54:14;;;;;;;37.87;22.40;;;0.20;89.70;;;;;;6311132;22;20147;-90
2022/02/28 02:56:40;;;;;;;35.10;20.63;;;0.30;89.80;;;;;;6311189;22;20666;-89
2022/02/28 02:59:06;;;;;;;39.30;22.73;;;0.30;89.90;;;;;;6311099;22;20206;-90
2022/02/28 03:01:32;;;;;;;35.90;23.47;;;0.30;90.00;;;;;;6311056;22;20153;-90
2022/02/28 03:03:57;;;;;;;36.40;24.20;;;0.30;90.00;;;;;;6311315;22;20276;-90
2022/02/28 03:06:24;;;;;;;35.63;22.47;;;0.40;90.00;;;;;;6311001;22;20186;-90
2022/02/28 03:08:50;;;;;;;43.00;22.70;;;0.30;90.10;;;;;;6310956;22;20246;-90
2022/02/28 03:11:16;;;;;;;34.23;22.37;;;0.40;90.10;;;;;;6312438;22;20178;-90
2022/02/28 03:13:42;;;;;;;34.63;21.77;;;0.40;90.10;;;;;;6313765;22;20225;-90
2022/02/28 03:16:07;;;;;;;40.33;23.17;;;0.40;90.00;;;;;;6313967;22;20581;-89
2022/02/28 03:18:33;;;;;;;40.40;22.77;;;0.40;90.00;;;;;;6312692;22;20182;-90
2022/02/28 03:20:58;;;;;;;38.23;22.60;;;0.40;90.00;;;;;;6313511;22;20247;-89
2022/02/28 03:23:25;;;;;;;37.27;23.70;;;0.40;89.90;;;;;;6313009;22;20166;-90
2022/02/28 03:25:51;;;;;;;32.30;21.07;;;0.40;89.90;;;;;;6313360;22;20179;-90
2022/02/28 03:28:17;;;;;;;36.67;22.20;;;0.40;89.90;;;;;;6313764;22;20255;-90
2022/02/28 03:30:43;;;;;;;37.20;22.43;;;0.30;89.90;;;;;;6312867;22;20150;-90
2022/02/28 03:33:08;;;;;;;40.47;22.67;;;0.30;89.80;;;;;;6312887;22;20209;-90
2022/02/28 03:35:34;;;;;;;40.17;22.53;;;0.30;89.80;;;;;;6312760;22;20154;-90
2022/02/28 03:37:59;;;;;;;37.10;22.67;;;0.40;89.80;;;;;;6312516;22;20633;-90
2022/02/28 03:40:25;;;;;;;37.83;23.10;;;0.30;89.80;;;;;;6312697;22;20212;-90
2022/02/28 03:42:51;;;;;;;35.10;21.63;;;0.30;89.80;;;;;;6312746;22;20145;-89
2022/02/28 03:45:18;;;;;;;35.97;21.10;;;0.30;89.70;;;;;;6312787;22;20151;-89
2022/02/28 03:47:44;;;;;;;35.10;21.00;;;0.30;89.70;;;;;;6312473;22;20196;-90
2022/02/28 03:50:10;;;;;;;36.97;21.37;;;0.30;89.60;;;;;;6312783;22;20155;-89
2022/02/28 03:52:35;;;;;;;34.77;21.83;;;0.30;89.60;;;;;;6312678;22;20537;-89
2022/02/28 03:55:02;;;;;;;36.57;21.70;;;0.30;89.60;;;;;;6312543;22;20147;-90
2022/02/28 03:57:28;;;;;;;40.03;22.70;;;0.30;89.60;;;;;;6312488;22;20237;-90
2022/02/28 03:59:53;;;;;;;35.13;21.87;;;0.30;89.60;;;;;;6312502;22;20160;-90
2022/02/28 04:02:19;;;;;;;35.03;22.07;;;0.30;89.60;;;;;;6312393;22;20163;-90
2022/02/28 04:04:44;;;;;;;37.23;19.80;;;0.20;89.50;;;;;;6312542;22;20157;-90
2022/02/28 04:07:11;;;;;;;34.53;21.10;;;0.20;89.50;;;;;;6312307;22;20250;-90
2022/02/28 04:09:37;;;;;;;38.97;21.57;;;0.20;89.60;;;;;;6312388;22;20205;-89
2022/02/28 04:12:03;;;;;;;32.10;20.60;;;0.20;89.50;;;;;;6312458;22;20328;-90
2022/02/28 04:14:29;;;;;;;36.17;21.37;;;0.10;89.50;;;;;;6312586;22;20152;-90
2022/02/28 04:16:54;;;;;;;32.20;20.37;;;0.10;89.50;;;;;;6312509;22;20154;-90
2022/02/28 04:19:20;;;;;;;34.97;22.30;;;0.10;89.50;;;;;;6312538;22;20489;-90
2022/02/28 04:21:45;;;;;;;35.67;21.03;;;0.10;89.40;;;;;;6312536;22;20185;-90
2022/02/28 04:24:11;;;;;;;32.83;21.57;;;0.00;89.50;;;;;;6312360;22;20210;-90
2022/02/28 04:26:36;;;;;;;34.90;20.93;;;0.00;89.50;;;;;;6312125;22;20658;-90
2022/02/28 04:29:03;;;;;;;33.27;21.20;;;0.00;89.50;;;;;;6312250;22;20623;-90
2022/02/28 04:31:29;;;;;;;35.67;21.77;;;0.00;89.50;;;;;;6312278;22;20146;-90
2022/02/28 04:33:55;;;;;;;32.13;20.97;;;0.00;89.40;;;;;;6312206;22;20160;-90
2022/02/28 04:36:20;;;;;;;32.53;20.37;;;0.00;89.40;;;;;;6312357;22;20153;-90
2022/02/28 04:38:46;;;;;;;31.23;20.53;;;0.00;89.40;;;;;;6312309;22;20184;-89
2022/02/28 04:41:12;;;;;;;34.00;19.23;;;-0.10;89.40;;;;;;6312095;22;20208;-90
2022/02/28 04:43:37;;;;;;;29.07;19.60;;;-0.10;89.50;;;;;;6312261;22;20194;-90
2022/02/28 04:46:03;;;;;;;31.90;21.73;;;-0.20;89.50;;;;;;6312526;22;20187;-90
2022/02/28 04:48:28;;;;;;;33.33;20.77;;;-0.10;89.50;;;;;;6312085;22;20214;-90
2022/02/28 04:50:55;;;;;;;33.63;20.93;;;-0.10;89.40;;;;;;6312245;22;20207;-90
2022/02/28 04:53:22;;;;;;;33.50;19.73;;;0.00;89.40;;;;;;6311382;22;20150;-89
2022/02/28 04:55:49;;;;;;;31.50;20.03;;;-0.10;89.40;;;;;;6312072;22;20161;-90
2022/02/28 04:58:15;;;;;;;30.80;21.33;;;-0.10;89.20;;;;;;6311999;22;20221;-90
2022/02/28 05:00:40;;;;;;;30.87;19.83;;;-0.10;89.20;;;;;;6312184;22;20154;-90
2022/02/28 05:03:06;;;;;;;28.50;18.67;;;-0.10;89.20;;;;;;6311881;22;20160;-90
2022/02/28 05:05:31;;;;;;;30.80;19.20;;;-0.20;89.10;;;;;;6312187;22;20164;-89
2022/02/28 05:07:57;;;;;;;29.67;18.53;;;-0.20;89.00;;;;;;6311875;22;20183;-90
2022/02/28 05:10:23;;;;;;;26.87;18.83;;;-0.30;88.90;;;;;;6312034;22;20192;-90
2022/02/28 05:12:48;;;;;;;31.87;18.57;;;-0.40;88.80;;;;;;6311984;22;20209;-90
2022/02/28 05:15:14;;;;;;;31.63;20.13;;;-0.40;88.60;;;;;;6311788;22;20157;-89
2022/02/28 05:17:40;;;;;;;32.63;19.87;;;-0.50;88.60;;;;;;6312333;22;20587;-90
2022/02/28 05:20:06;;;;;;;31.10;20.73;;;-0.50;88.70;;;;;;6311822;22;20155;-90
2022/02/28 05:22:32;;;;;;;31.33;21.23;;;-0.60;88.70;;;;;;6311767;22;20161;-89
2022/02/28 05:24:57;;;;;;;31.23;20.47;;;-0.60;88.90;;;;;;6311881;22;20526;-89
2022/02/28 05:27:23;;;;;;;29.37;19.83;;;-0.60;89.10;;;;;;6312000;22;20181;-89
2022/02/28 05:29:48;;;;;;;35.57;21.87;;;-0.70;89.20;;;;;;6311964;22;20177;-90
2022/02/28 05:32:14;;;;;;;30.20;20.83;;;-0.60;89.40;;;;;;6311690;22;20495;-90
2022/02/28 05:34:39;;;;;;;34.07;21.47;;;-0.60;89.40;;;;;;6311181;22;20597;-89
2022/02/28 05:37:05;;;;;;;33.93;21.23;;;-0.60;89.50;;;;;;6311585;22;20601;-90
2022/02/28 05:39:31;;;;;;;31.80;20.57;;;-0.60;89.50;;;;;;6311566;22;20249;-89
2022/02/28 05:41:56;;;;;;;30.07;20.87;;;-0.70;89.60;;;;;;6311442;22;20180;-89
2022/02/28 05:44:22;;;;;;;35.13;21.97;;;-0.70;89.70;;;;;;6339163;22;20150;-90
2022/02/28 05:46:48;;;;;;;37.53;22.80;;;-0.70;89.80;;;;;;6311543;22;20173;-89
2022/02/28 05:49:13;;;;;;;35.83;22.60;;;-0.60;89.90;;;;;;6311856;22;20249;-89
2022/02/28 05:51:39;;;;;;;38.50;21.87;;;-0.60;90.00;;;;;;6311573;22;20149;-89
2022/02/28 05:54:05;;;;;;;34.20;22.30;;;-0.60;90.10;;;;;;6311547;22;20156;-90
2022/02/28 05:56:32;;;;;;;35.17;22.93;;;-0.50;90.20;;;;;;6311396;22;20158;-89
2022/02/28 05:58:58;;;;;;;37.90;23.50;;;-0.50;90.20;;;;;;6311449;22;20174;-89
2022/02/28 06:01:27;;;;;;;39.13;23.27;;;-0.50;90.20;;;;;;6311371;22;20183;-90
2022/02/28 06:03:52;;;;;;;43.70;24.97;;;-0.50;90.20;;;;;;6311278;22;20213;-89
2022/02/28 06:06:18;;;;;;;43.47;24.83;;;-0.50;90.30;;;;;;6311758;22;20260;-90
2022/02/28 06:08:43;;;;;;;34.77;21.90;;;-0.50;90.30;;;;;;6311431;22;20177;-90
2022/02/28 06:11:11;;;;;;;39.77;23.33;;;-0.50;90.40;;;;;;6311490;22;20175;-89
2022/02/28 06:13:37;;;;;;;38.67;24.17;;;-0.50;90.40;;;;;;6311327;22;20145;-89
2022/02/28 06:16:04;;;;;;;35.20;23.33;;;-0.50;90.40;;;;;;6311266;22;20162;-90
2022/02/28 06:18:30;;;;;;;39.93;24.10;;;-0.50;90.40;;;;;;6311199;22;20173;-90
2022/02/28 06:20:59;;;;;;;37.60;23.80;;;-0.50;90.50;;;;;;6311648;22;20236;-89
2022/02/28 06:23:25;;;;;;;34.10;23.07;;;-0.50;90.50;;;;;;6311609;22;20162;-90
2022/02/28 06:25:50;;;;;;;42.83;23.73;;;-0.50;90.50;;;;;;6311337;22;20165;-89
2022/02/28 06:28:20;;;;;;;40.60;23.90;;;-0.50;90.50;;;;;;6311409;22;20169;-89
2022/02/28 06:30:46;;;;;;;40.50;25.43;;;-0.50;90.60;;;;;;6311369;22;20149;-89
2022/02/28 06:33:11;;;;;;;45.63;25.40;;;-0.50;90.60;;;;;;6311266;22;20235;-89
2022/02/28 06:35:37;;;;;;;38.83;24.70;;;-0.50;90.60;;;;;;6311334;22;20650;-90
2022/02/28 06:38:03;;;;;;;37.83;24.00;;;-0.50;90.60;;;;;;6311341;22;20173;-89
2022/02/28 06:40:29;;;;;;;43.07;24.83;;;-0.40;90.70;;;;;;6311512;22;20206;-89
2022/02/28 06:42:55;;;;;;;38.83;24.77;;;-0.40;90.70;;;;;;6311514;22;20178;-89
2022/02/28 06:45:24;;;;;;;40.67;25.90;;;-0.30;90.70;;;;;;6311960;22;20150;-89
2022/02/28 06:47:52;;;;;;;39.70;24.57;;;-0.30;90.60;;;;;;6326437;22;20169;-91
2022/02/28 06:50:18;;;;;;;42.57;25.63;;;-0.30;90.60;;;;;;6321690;22;20161;-89
2022/02/28 06:52:44;;;;;;;40.17;24.97;;;-0.30;90.60;;;;;;6313294;22;20282;-89
2022/02/28 06:55:09;;;;;;;38.43;23.37;;;-0.30;90.60;;;;;;6313609;22;20159;-89
2022/02/28 06:57:35;;;;;;;37.30;24.63;;;-0.30;90.60;;;;;;6313379;22;20628;-89
2022/02/28 07:00:01;;;;;;;40.83;25.70;;;-0.30;90.60;;;;;;6313286;22;20154;-89
2022/02/28 07:02:26;;;;;;;46.27;25.40;;;-0.30;90.70;;;;;;6313356;22;20181;-90
2022/02/28 07:04:52;;;;;;;42.37;25.70;;;-0.10;90.80;;;;;;6313328;22;20150;-90
2022/02/28 07:07:18;;;;;;;42.43;25.13;;;-0.10;90.80;;;;;;6313423;22;20215;-90
2022/02/28 07:09:47;;;;;;;39.60;25.97;;;-0.10;90.70;;;;;;6313117;22;20517;-89
2022/02/28 07:12:13;;;;;;;40.00;24.83;;;0.00;90.70;;;;;;6313959;22;20671;-90
2022/02/28 07:14:40;;;;;;;39.97;26.30;;;0.00;90.70;;;;;;6313361;22;20154;-89
2022/02/28 07:17:06;;;;;;;45.17;26.37;;;0.00;90.60;;;;;;6312880;22;20498;-88
2022/02/28 07:19:33;;;;;;;43.77;25.67;;;0.10;90.50;;;;;;6312834;22;20197;-89
2022/02/28 07:21:59;;;;;;;42.83;25.17;;;0.20;90.40;;;;;;6312937;22;20155;-90
2022/02/28 07:24:25;;;;;;;37.17;25.87;;;0.20;90.30;;;;;;6313355;22;20160;-91
2022/02/28 07:26:51;;;;;;;42.80;24.93;;;0.30;90.20;;;;;;6312688;22;20186;-90
2022/02/28 07:29:16;;;;;;;41.77;25.40;;;0.30;90.10;;;;;;6313438;22;20258;-90
2022/02/28 07:31:42;;;;;;;42.07;25.80;;;0.40;89.90;;;;;;6312978;22;20155;-89
2022/02/28 07:34:08;;;;;;;41.80;24.10;;;0.50;89.80;;;;;;6312991;22;20146;-90
2022/02/28 07:36:34;;;;;;;43.50;24.60;;;0.50;89.60;;;;;;6312744;22;20231;-90
2022/02/28 07:39:00;;;;;;;37.17;24.93;;;0.50;89.40;;;;;;6313141;22;20200;-90
2022/02/28 07:41:26;;;;;;;40.67;24.93;;;0.60;89.30;;;;;;6313155;22;20588;-90
2022/02/28 07:43:51;;;;;;;42.93;24.93;;;0.60;89.20;;;;;;6313003;22;20159;-90
2022/02/28 07:46:17;;;;;;;40.10;24.90;;;0.70;89.10;;;;;;6313438;22;20636;-90
2022/02/28 07:48:43;;;;;;;45.47;25.57;;;0.70;88.80;;;;;;6313474;22;20198;-90
2022/02/28 07:51:08;;;;;;;39.30;24.30;;;0.80;88.70;;;;;;6313338;22;20158;-90
2022/02/28 07:53:34;;;;;;;37.90;24.33;;;0.80;88.70;;;;;;6313095;22;20563;-90
2022/02/28 07:55:59;;;;;;;37.03;25.20;;;0.90;88.70;;;;;;6313508;22;20167;-90
2022/02/28 07:58:25;;;;;;;33.53;23.60;;;1.00;88.60;;;;;;6312391;22;20176;-91
2022/02/28 08:00:51;;;;;;;37.83;24.87;;;1.00;88.50;;;;;;6312717;22;20551;-90
2022/02/28 08:03:16;;;;;;;38.30;24.90;;;1.10;88.40;;;;;;6312927;22;20157;-90
2022/02/28 08:05:51;;;;;;;39.17;23.73;;;1.10;88.20;;;;;;6315024;22;20161;-91
2022/02/28 08:08:17;;;;;;;39.30;25.00;;;1.10;88.10;;;;;;6321948;22;20183;-92
2022/02/28 08:10:42;;;;;;;40.07;24.40;;;1.20;88.00;;;;;;6319164;22;20159;-90
2022/02/28 08:13:11;;;;;;;39.37;26.00;;;1.30;87.80;;;;;;6319162;22;20624;-91
2022/02/28 08:15:38;;;;;;;35.73;25.20;;;1.30;87.60;;;;;;6315061;22;20156;-90
2022/02/28 08:18:03;;;;;;;40.27;25.97;;;1.30;87.30;;;;;;6312688;22;20175;-89
2022/02/28 08:20:29;;;;;;;40.33;27.30;;;1.40;87.10;;;;;;6312925;22;20236;-90
2022/02/28 08:22:54;;;;;;;43.00;26.70;;;1.40;86.80;;;;;;6312626;22;20595;-88
2022/02/28 08:25:20;;;;;;;40.90;24.90;;;1.50;86.80;;;;;;6313643;22;20157;-88
2022/02/28 08:27:45;;;;;;;39.60;25.33;;;1.50;86.50;;;;;;6312671;22;20513;-88
2022/02/28 08:30:12;;;;;;;45.13;26.80;;;1.50;86.30;;;;;;6312453;22;20202;-89
2022/02/28 08:32:37;;;;;;;42.00;26.07;;;1.70;86.80;;;;;;6312323;22;20205;-90
2022/02/28 08:35:03;;;;;;;38.80;25.73;;;1.80;86.50;;;;;;6312278;22;20161;-90
2022/02/28 08:37:29;;;;;;;39.13;24.60;;;1.80;86.20;;;;;;6312292;22;20159;-90
2022/02/28 08:39:54;;;;;;;39.27;24.60;;;1.80;85.70;;;;;;6339883;22;20180;-89
2022/02/28 08:42:20;;;;;;;42.63;26.07;;;1.80;85.50;;;;;;6312280;22;20521;-91
2022/02/28 08:44:45;;;;;;;39.20;24.93;;;1.90;85.50;;;;;;6312193;22;20635;-92
2022/02/28 08:47:11;;;;;;;38.03;26.07;;;2.00;85.10;;;;;;6312579;22;20259;-90
2022/02/28 08:49:37;;;;;;;36.90;24.27;;;2.00;85.00;;;;;;6312949;22;20256;-91
2022/02/28 08:52:05;;;;;;;37.40;23.53;;;2.10;84.80;;;;;;6312719;22;20603;-91
2022/02/28 08:54:31;;;;;;;39.30;25.23;;;2.20;84.80;;;;;;6313408;22;20176;-91
2022/02/28 08:56:56;;;;;;;41.03;26.00;;;2.30;85.00;;;;;;6311881;22;20475;-90
2022/02/28 08:59:22;;;;;;;38.23;24.57;;;2.30;84.90;;;;;;6311879;22;20511;-90
2022/02/28 09:01:48;;;;;;;33.07;23.53;;;2.40;84.30;;;;;;6311820;22;20156;-91
2022/02/28 09:04:13;;;;;;;44.93;24.80;;;2.40;83.90;;;;;;6312280;22;20685;-90
2022/02/28 09:06:39;;;;;;;40.53;24.23;;;2.50;83.90;;;;;;6311963;22;20179;-91
2022/02/28 09:09:04;;;;;;;32.23;23.63;;;2.60;83.60;;;;;;6311800;22;20175;-89
2022/02/28 09:11:30;;;;;;;42.43;24.37;;;2.60;82.90;;;;;;6326036;22;20165;-91
2022/02/28 09:13:56;;;;;;;33.50;23.50;;;2.70;82.50;;;;;;6313779;22;20483;-90
2022/02/28 09:16:22;;;;;;;40.07;24.50;;;2.80;82.40;;;;;;6313286;22;20290;-90
2022/02/28 09:18:48;;;;;;;35.10;22.77;;;2.90;82.50;;;;;;6311726;22;20175;-91
2022/02/28 09:21:14;;;;;;;35.90;24.07;;;2.90;81.90;;;;;;6312001;22;20223;-91
2022/02/28 09:23:39;;;;;;;36.20;24.00;;;3.00;81.90;;;;;;6311854;22;20152;-91
2022/02/28 09:26:05;;;;;;;36.90;23.27;;;3.00;81.50;;;;;;6311917;22;20240;-91
2022/02/28 09:28:34;;;;;;;32.00;22.40;;;3.20;81.80;;;;;;6312087;22;20169;-92
2022/02/28 09:31:00;;;;;;;32.67;22.90;;;3.40;81.40;;;;;;6312777;22;20176;-89
2022/02/28 09:33:25;;;;;;;34.23;21.93;;;3.40;80.70;;;;;;6312482;22;20149;-90
2022/02/28 09:35:52;;;;;;;34.87;22.27;;;3.40;81.00;;;;;;6314094;22;20168;-90
2022/02/28 09:38:17;;;;;;;37.30;23.13;;;3.60;81.00;;;;;;6311950;22;20177;-90
2022/02/28 09:40:46;;;;;;;33.13;21.60;;;3.60;80.60;;;;;;6312595;22;20611;-89
2022/02/28 09:43:12;;;;;;;29.83;22.63;;;3.70;79.80;;;;;;6311749;22;20149;-89
2022/02/28 09:45:38;;;;;;;33.93;22.47;;;3.70;79.20;;;;;;6311539;22;20153;-89
2022/02/28 09:48:04;;;;;;;35.73;22.17;;;3.80;79.50;;;;;;6313317;22;20271;-92
2022/02/28 09:50:30;;;;;;;33.87;22.10;;;3.90;79.10;;;;;;6312563;22;20153;-91
2022/02/28 09:55:33;;;;;;;34.57;22.90;;;4.20;78.20;;;;;;6341677;22;20177;-91
2022/02/28 09:57:59;;;;;;;35.97;23.40;;;4.20;77.50;;;;;;6314183;22;20173;-91
2022/02/28 10:00:26;;;;;;;35.97;22.23;;;4.30;78.60;;;;;;6317336;22;20136;-90
2022/02/28 10:03:02;;;;;;;33.40;23.37;;;4.50;78.40;;;;;;6341018;22;20149;-91
2022/02/28 16:24:45;;;;;;;21.43;15.77;;;6.30;67.80;;;;;;6303518;22;20581;-89
2022/02/28 16:27:11;;;;;;;25.80;16.77;;;6.30;68.00;;;;;;6312424;22;20169;-90
2022/02/28 16:29:37;;;;;;;23.07;16.37;;;6.20;68.60;;;;;;6312147;22;20157;-89
2022/02/28 16:32:03;;;;;;;19.83;14.83;;;6.10;68.70;;;;;;6312227;22;20192;-89
2022/02/28 16:34:29;;;;;;;20.07;15.07;;;6.20;69.10;;;;;;6312091;22;20145;-90
2022/02/28 16:36:54;;;;;;;20.50;15.93;;;6.00;69.50;;;;;;6312187;22;20232;-89
2022/02/28 16:39:21;;;;;;;20.77;16.67;;;6.00;69.20;;;;;;6312049;22;20164;-89
2022/02/28 16:41:47;;;;;;;20.70;15.07;;;5.90;69.20;;;;;;6312112;22;20213;-90
2022/02/28 16:44:14;;;;;;;21.00;15.63;;;5.90;69.40;;;;;;6312061;22;20192;-89
2022/02/28 16:46:40;;;;;;;22.20;17.27;;;5.80;69.90;;;;;;6312361;22;20742;-89
2022/02/28 16:49:06;;;;;;;23.97;17.50;;;5.70;70.10;;;;;;6312785;22;20248;-89
2022/02/28 16:51:32;;;;;;;19.40;15.43;;;5.70;70.30;;;;;;6340005;22;20145;-90
2022/02/28 16:53:57;;;;;;;26.13;18.13;;;5.80;69.90;;;;;;6313270;22;20209;-90
2022/02/28 16:56:23;;;;;;;24.57;16.87;;;5.70;70.20;;;;;;6312083;22;20263;-89
2022/02/28 16:58:48;;;;;;;24.13;17.83;;;5.60;70.80;;;;;;6311985;22;20210;-90
2022/02/28 17:01:14;;;;;;;30.97;18.33;;;5.60;70.80;;;;;;6311909;22;20159;-90
2022/02/28 17:03:39;;;;;;;23.43;17.77;;;5.50;71.20;;;;;;6311972;22;20156;-90
2022/02/28 17:06:05;;;;;;;22.03;17.77;;;5.40;71.30;;;;;;6339230;22;20165;-89
2022/02/28 17:08:30;;;;;;;21.97;17.13;;;5.30;72.00;;;;;;6339739;22;20152;-89
2022/02/28 17:10:56;;;;;;;25.60;17.33;;;5.20;72.50;;;;;;6313020;22;20179;-89
2022/02/28 17:13:22;;;;;;;24.30;17.63;;;5.20;72.20;;;;;;6339409;22;20180;-89
2022/02/28 17:15:49;;;;;;;26.17;18.10;;;5.10;72.60;;;;;;6311704;22;20179;-90
2022/02/28 17:18:14;;;;;;;24.03;16.83;;;5.10;72.80;;;;;;6311826;22;20158;-90
2022/02/28 17:20:40;;;;;;;24.63;16.57;;;5.00;73.10;;;;;;6312230;22;20186;-89
2022/02/28 17:23:07;;;;;;;24.20;17.67;;;5.00;73.20;;;;;;6311744;22;20154;-89
2022/02/28 17:25:33;;;;;;;23.40;16.73;;;4.90;73.20;;;;;;6339041;22;20707;-89
2022/02/28 17:27:59;;;;;;;23.40;16.83;;;4.90;73.30;;;;;;6311722;22;20175;-89
2022/02/28 17:30:24;;;;;;;21.17;15.97;;;4.80;73.50;;;;;;6311675;22;20210;-89
2022/02/28 17:32:50;;;;;;;26.10;17.43;;;4.80;73.40;;;;;;6312099;22;20587;-89
2022/02/28 17:35:16;;;;;;;27.17;16.17;;;4.80;73.60;;;;;;6311410;22;20176;-89
2022/02/28 17:37:41;;;;;;;21.67;14.97;;;4.70;73.90;;;;;;6311627;22;20154;-89
2022/02/28 17:40:09;;;;;;;27.67;17.40;;;4.70;73.90;;;;;;6339233;22;20157;-90
2022/02/28 17:42:34;;;;;;;25.63;17.13;;;4.60;74.10;;;;;;6312652;22;20149;-89
2022/02/28 17:45:00;;;;;;;24.43;16.47;;;4.50;74.60;;;;;;6339139;22;20166;-89
2022/02/28 17:47:26;;;;;;;25.20;17.87;;;4.50;74.80;;;;;;6311348;22;20201;-90
2022/02/28 17:49:52;;;;;;;26.10;16.87;;;4.40;74.90;;;;;;6311397;22;20232;-90
2022/02/28 17:52:32;;;;;;;23.23;16.10;;;4.50;75.00;;;;;;6328704;22;20146;-91
2022/02/28 17:55:14;;;;;;;28.63;16.67;;;4.60;74.70;;;;;;6354942;22;20175;-93
2022/02/28 17:57:40;;;;;;;24.93;16.80;;;4.60;74.70;;;;;;6329464;22;20161;-92
2022/02/28 18:00:12;;;;;;;22.13;15.43;;;4.80;74.40;;;;;;6329564;22;20471;-92
2022/02/28 18:02:39;;;;;;;24.80;16.20;;;4.80;74.00;;;;;;6326005;22;20143;-91
2022/02/28 18:05:05;;;;;;;21.33;16.20;;;4.80;73.60;;;;;;6327707;22;20171;-92
2022/02/28 18:07:30;;;;;;;24.40;17.33;;;4.80;73.90;;;;;;6322216;22;20193;-92
2022/02/28 18:09:56;;;;;;;25.63;17.07;;;4.90;73.60;;;;;;6325849;22;20169;-92
2022/02/28 18:12:22;;;;;;;24.57;15.53;;;4.90;73.10;;;;;;6328638;22;20145;-92
2022/02/28 18:14:48;;;;;;;22.70;15.63;;;4.90;73.20;;;;;;6332407;22;20202;-92
2022/02/28 18:17:14;;;;;;;21.53;15.90;;;4.80;73.10;;;;;;6355994;22;20147;-92
2022/02/28 18:19:40;;;;;;;22.93;15.30;;;4.70;73.50;;;;;;6327629;22;20162;-92
2022/02/28 18:22:06;;;;;;;30.00;18.50;;;4.80;73.60;;;;;;6331123;22;20186;-92
2022/02/28 18:24:32;;;;;;;23.73;16.83;;;4.70;73.60;;;;;;6335279;22;20141;-92
2022/02/28 18:26:58;;;;;;;25.17;16.30;;;4.80;73.60;;;;;;6338621;22;20177;-93
2022/02/28 18:29:23;;;;;;;21.03;16.17;;;4.70;73.70;;;;;;6334256;22;20149;-93
2022/02/28 18:31:49;;;;;;;26.57;17.50;;;4.70;73.90;;;;;;6337044;22;20166;-92
2022/02/28 18:34:17;;;;;;;22.73;15.33;;;4.60;74.10;;;;;;6332061;22;20156;-92
2022/02/28 18:36:43;;;;;;;27.03;16.03;;;4.40;74.50;;;;;;6332592;22;20272;-93
2022/02/28 18:39:10;;;;;;;23.17;15.80;;;4.20;75.30;;;;;;6336049;22;20152;-92
2022/02/28 18:41:36;;;;;;;23.87;16.87;;;4.10;75.90;;;;;;6337361;22;20135;-92
2022/02/28 18:44:02;;;;;;;24.93;17.00;;;4.10;75.90;;;;;;6340185;22;20163;-92
2022/02/28 18:46:28;;;;;;;25.67;16.53;;;4.00;76.10;;;;;;6339125;22;20193;-92
2022/02/28 18:48:54;;;;;;;25.27;18.03;;;4.00;76.40;;;;;;6365534;22;20214;-92
2022/02/28 18:51:19;;;;;;;29.73;17.60;;;3.90;76.60;;;;;;6339364;22;20173;-92